createdAt,value
2018-12-31T00:01:06.149Z,4.50
2018-12-31T00:03:33.753Z,4.50
2018-12-31T00:06:01.377Z,4.50
2018-12-31T00:08:28.988Z,4.50
2018-12-31T00:10:56.623Z,4.50
2018-12-31T00:13:24.241Z,4.50
2018-12-31T00:15:51.870Z,4.50
2018-12-31T00:18:19.476Z,4.50
2018-12-31T00:20:47.099Z,4.50
2018-12-31T00:23:14.709Z,4.60
2018-12-31T00:25:42.328Z,4.50
2018-12-31T00:28:09.971Z,4.50
2018-12-31T00:30:37.576Z,4.50
2018-12-31T00:33:05.258Z,4.50
2018-12-31T00:35:32.888Z,4.50
2018-12-31T00:38:00.516Z,4.50
2018-12-31T00:40:28.129Z,4.50
2018-12-31T00:42:59.118Z,4.50
2018-12-31T00:45:25.072Z,4.50
2018-12-31T00:47:52.711Z,4.40
2018-12-31T00:50:20.321Z,4.40
2018-12-31T00:52:47.941Z,4.40
2018-12-31T00:55:15.545Z,4.40
2018-12-31T00:57:43.161Z,4.40
2018-12-31T01:00:10.791Z,4.40
2018-12-31T01:02:38.401Z,4.40
2018-12-31T01:05:06.038Z,4.40
2018-12-31T01:07:33.633Z,4.40
2018-12-31T01:10:01.283Z,4.40
2018-12-31T01:12:28.917Z,4.40
2018-12-31T01:14:56.528Z,4.30
2018-12-31T01:17:24.155Z,4.30
2018-12-31T01:19:51.760Z,4.30
2018-12-31T01:22:19.388Z,4.30
2018-12-31T01:24:47.007Z,4.30
2018-12-31T01:27:14.613Z,4.30
2018-12-31T01:29:42.256Z,4.30
2018-12-31T01:32:09.848Z,4.30
2018-12-31T01:34:37.480Z,4.30
2018-12-31T01:37:05.089Z,4.30
2018-12-31T01:39:32.713Z,4.30
2018-12-31T01:42:00.327Z,4.30
2018-12-31T01:44:28.004Z,4.30
2018-12-31T01:46:55.636Z,4.30
2018-12-31T01:49:23.257Z,4.30
2018-12-31T01:51:50.879Z,4.30
2018-12-31T01:54:18.492Z,4.30
2018-12-31T01:56:46.108Z,4.30
2018-12-31T01:59:13.724Z,4.30
2018-12-31T02:01:41.328Z,4.30
2018-12-31T02:04:08.953Z,4.30
2018-12-31T02:06:36.624Z,4.20
2018-12-31T02:09:05.317Z,4.20
2018-12-31T02:11:32.928Z,4.30
2018-12-31T02:14:00.551Z,4.30
2018-12-31T02:16:28.409Z,4.40
2018-12-31T02:18:56.042Z,4.40
2018-12-31T02:21:23.663Z,4.40
2018-12-31T02:23:51.273Z,4.30
2018-12-31T02:26:18.905Z,4.30
2018-12-31T02:28:46.536Z,4.40
2018-12-31T02:31:14.142Z,4.30
2018-12-31T02:33:41.787Z,4.30
2018-12-31T02:36:09.452Z,4.30
2018-12-31T02:38:37.078Z,4.30
2018-12-31T02:41:04.701Z,4.30
2018-12-31T02:43:32.304Z,4.30
2018-12-31T02:45:59.926Z,4.40
2018-12-31T02:48:27.561Z,4.40
2018-12-31T02:50:55.176Z,4.30
2018-12-31T02:53:22.794Z,4.40
2018-12-31T02:55:50.436Z,4.40
2018-12-31T02:58:18.040Z,4.40
2018-12-31T03:00:45.732Z,4.40
2018-12-31T03:03:13.351Z,4.40
2018-12-31T03:05:41.019Z,4.40
2018-12-31T03:08:08.612Z,4.40
2018-12-31T03:10:36.253Z,4.40
2018-12-31T03:13:03.860Z,4.40
2018-12-31T03:15:31.474Z,4.40
2018-12-31T03:17:59.323Z,4.40
2018-12-31T03:20:26.936Z,4.40
2018-12-31T03:22:54.563Z,4.40
2018-12-31T03:25:22.172Z,4.40
2018-12-31T03:27:49.776Z,4.40
2018-12-31T03:30:17.507Z,4.40
2018-12-31T03:32:45.116Z,4.40
2018-12-31T03:35:12.728Z,4.40
2018-12-31T03:37:40.374Z,4.40
2018-12-31T03:40:08.036Z,4.50
2018-12-31T03:42:35.656Z,4.50
2018-12-31T03:45:03.324Z,4.50
2018-12-31T03:47:30.972Z,4.50
2018-12-31T03:49:58.653Z,4.50
2018-12-31T03:52:26.290Z,4.50
2018-12-31T03:54:53.920Z,4.50
2018-12-31T03:57:21.529Z,4.60
2018-12-31T03:59:49.203Z,4.60
2018-12-31T04:02:17.004Z,4.60
2018-12-31T04:04:44.612Z,4.60
2018-12-31T04:07:12.237Z,4.70
2018-12-31T04:09:39.841Z,4.60
2018-12-31T04:12:07.499Z,4.60
2018-12-31T04:14:35.119Z,4.60
2018-12-31T04:17:02.730Z,4.70
2018-12-31T04:19:30.358Z,4.70
2018-12-31T04:21:57.959Z,4.80
2018-12-31T04:24:25.608Z,4.80
2018-12-31T04:26:53.291Z,4.80
2018-12-31T04:29:20.893Z,4.80
2018-12-31T04:31:48.573Z,4.80
2018-12-31T04:34:16.205Z,4.80
2018-12-31T04:36:43.825Z,4.80
2018-12-31T04:39:11.436Z,4.80
2018-12-31T04:41:39.045Z,4.70
2018-12-31T04:44:06.684Z,4.70
2018-12-31T04:46:34.286Z,4.70
2018-12-31T04:49:01.924Z,4.70
2018-12-31T04:51:29.514Z,4.70
2018-12-31T04:53:57.148Z,4.70
2018-12-31T04:56:24.744Z,4.70
2018-12-31T04:58:52.388Z,4.60
2018-12-31T05:01:20.007Z,4.60
2018-12-31T05:03:47.620Z,4.60
2018-12-31T05:06:15.239Z,4.60
2018-12-31T05:08:42.873Z,4.60
2018-12-31T05:11:10.468Z,4.60
2018-12-31T05:13:38.093Z,4.60
2018-12-31T05:16:05.707Z,4.60
2018-12-31T05:18:33.345Z,4.60
2018-12-31T05:21:00.953Z,4.60
2018-12-31T05:23:28.581Z,4.60
2018-12-31T05:25:56.211Z,4.70
2018-12-31T05:28:23.820Z,4.70
2018-12-31T05:30:51.447Z,4.60
2018-12-31T05:33:19.075Z,4.70
2018-12-31T05:35:46.688Z,4.70
2018-12-31T05:38:14.325Z,4.70
2018-12-31T05:40:41.951Z,4.70
2018-12-31T05:43:09.576Z,4.70
2018-12-31T05:45:37.194Z,4.80
2018-12-31T05:48:04.817Z,4.70
2018-12-31T05:50:32.433Z,4.80
2018-12-31T05:53:00.082Z,4.80
2018-12-31T05:55:27.699Z,4.80
2018-12-31T05:57:55.301Z,4.80
2018-12-31T06:00:22.933Z,4.90
2018-12-31T06:02:50.545Z,4.90
2018-12-31T06:05:18.165Z,4.90
2018-12-31T06:07:45.802Z,4.90
2018-12-31T06:10:13.423Z,5.00
2018-12-31T06:12:41.035Z,5.00
2018-12-31T06:15:08.648Z,5.00
2018-12-31T06:17:36.271Z,5.00
2018-12-31T06:20:03.972Z,5.00
2018-12-31T06:22:31.568Z,5.10
2018-12-31T06:24:59.210Z,5.10
2018-12-31T06:27:26.823Z,5.10
2018-12-31T06:29:54.452Z,5.10
2018-12-31T06:32:22.057Z,5.10
2018-12-31T06:34:49.693Z,5.10
2018-12-31T06:37:17.307Z,5.20
2018-12-31T06:39:44.916Z,5.20
2018-12-31T06:42:12.532Z,5.30
2018-12-31T06:44:40.157Z,5.30
2018-12-31T06:47:07.769Z,5.20
2018-12-31T06:49:35.384Z,5.20
2018-12-31T06:52:02.997Z,5.30
2018-12-31T06:54:30.615Z,5.30
2018-12-31T06:56:58.217Z,5.20
2018-12-31T06:59:25.862Z,5.30
2018-12-31T07:01:53.479Z,5.20
2018-12-31T07:04:21.105Z,5.20
2018-12-31T07:06:48.708Z,5.20
2018-12-31T07:09:16.319Z,5.30
2018-12-31T07:11:43.932Z,5.20
2018-12-31T07:14:11.541Z,5.20
2018-12-31T07:16:39.161Z,5.20
2018-12-31T07:19:06.774Z,5.20
2018-12-31T07:21:34.400Z,5.20
2018-12-31T07:24:02.000Z,5.10
2018-12-31T07:26:29.612Z,5.10
2018-12-31T07:28:57.228Z,5.10
2018-12-31T07:31:24.849Z,5.20
2018-12-31T07:33:52.464Z,5.20
2018-12-31T07:36:20.684Z,5.20
2018-12-31T07:38:48.317Z,5.20
2018-12-31T07:41:15.925Z,5.10
2018-12-31T07:43:43.541Z,5.20
2018-12-31T07:46:11.156Z,5.20
2018-12-31T07:48:38.765Z,5.20
2018-12-31T07:51:06.383Z,5.20
2018-12-31T07:53:34.023Z,5.20
2018-12-31T07:56:01.645Z,5.20
2018-12-31T07:58:29.250Z,5.20
2018-12-31T08:00:56.877Z,5.20
2018-12-31T08:03:24.482Z,5.20
2018-12-31T08:05:52.116Z,5.20
2018-12-31T08:08:19.723Z,5.20
2018-12-31T08:10:47.367Z,5.20
2018-12-31T08:13:14.980Z,5.20
2018-12-31T08:15:42.592Z,5.20
2018-12-31T08:18:10.224Z,5.20
2018-12-31T08:20:37.837Z,5.20
2018-12-31T08:23:05.463Z,5.20
2018-12-31T08:25:33.076Z,5.20
2018-12-31T08:28:00.707Z,5.20
2018-12-31T08:30:28.335Z,5.20
2018-12-31T08:32:55.955Z,5.30
2018-12-31T08:35:23.560Z,5.30
2018-12-31T08:37:51.169Z,5.30
2018-12-31T08:40:18.810Z,5.30
2018-12-31T08:42:46.413Z,5.30
2018-12-31T08:45:14.045Z,5.30
2018-12-31T08:47:41.667Z,5.30
2018-12-31T08:50:09.269Z,5.40
2018-12-31T08:52:36.901Z,5.40
2018-12-31T08:55:04.680Z,5.40
2018-12-31T08:57:32.298Z,5.40
2018-12-31T08:59:59.916Z,5.40
2018-12-31T09:02:27.549Z,5.40
2018-12-31T09:04:55.160Z,5.40
2018-12-31T09:07:22.785Z,5.40
2018-12-31T09:09:50.406Z,5.40
2018-12-31T09:12:18.026Z,5.40
2018-12-31T09:14:45.622Z,5.50
2018-12-31T09:17:13.232Z,5.50
2018-12-31T09:19:40.877Z,5.50
2018-12-31T09:22:08.498Z,5.60
2018-12-31T09:24:36.115Z,5.60
2018-12-31T09:27:03.732Z,5.60
2018-12-31T09:29:31.339Z,5.60
2018-12-31T09:31:58.983Z,5.60
2018-12-31T09:34:26.591Z,5.60
2018-12-31T09:36:54.289Z,5.60
2018-12-31T09:39:21.893Z,5.60
2018-12-31T09:41:49.513Z,5.60
2018-12-31T09:44:17.126Z,5.60
2018-12-31T09:46:44.745Z,5.60
2018-12-31T09:49:12.360Z,5.60
2018-12-31T09:51:39.988Z,5.60
2018-12-31T09:54:07.589Z,5.60
2018-12-31T09:56:35.222Z,5.70
2018-12-31T09:59:02.855Z,5.60
2018-12-31T10:01:30.474Z,5.60
2018-12-31T10:03:58.064Z,5.60
2018-12-31T10:06:25.695Z,5.60
2018-12-31T10:08:53.319Z,5.70
2018-12-31T10:11:20.920Z,5.70
2018-12-31T10:13:48.736Z,5.70
2018-12-31T10:16:16.354Z,5.70
2018-12-31T10:18:43.977Z,5.70
2018-12-31T10:21:11.595Z,5.80
2018-12-31T10:23:39.212Z,5.80
2018-12-31T10:26:06.821Z,5.80
2018-12-31T10:28:34.433Z,5.80
2018-12-31T10:31:02.069Z,5.80
2018-12-31T10:33:29.657Z,5.80
2018-12-31T10:35:57.283Z,5.90
2018-12-31T10:38:24.900Z,5.90
2018-12-31T10:40:52.523Z,5.80
2018-12-31T10:43:20.145Z,5.90
2018-12-31T10:45:47.752Z,5.90
2018-12-31T10:48:15.380Z,6.00
2018-12-31T10:50:42.980Z,6.10
2018-12-31T10:53:10.620Z,6.00
2018-12-31T10:55:38.259Z,6.10
2018-12-31T10:58:05.887Z,6.10
2018-12-31T11:00:33.503Z,6.20
2018-12-31T11:03:01.134Z,6.20
2018-12-31T11:05:28.760Z,6.10
2018-12-31T11:07:56.597Z,6.10
2018-12-31T11:10:24.218Z,6.20
2018-12-31T11:12:51.859Z,6.20
2018-12-31T11:15:19.465Z,6.30
2018-12-31T11:17:47.096Z,6.20
2018-12-31T11:20:14.697Z,6.30
2018-12-31T11:22:42.313Z,6.30
2018-12-31T11:25:09.933Z,6.40
2018-12-31T11:27:38.381Z,6.40
2018-12-31T11:30:06.370Z,6.50
2018-12-31T11:32:33.977Z,6.50
2018-12-31T11:35:01.604Z,6.40
2018-12-31T11:37:34.594Z,6.40
2018-12-31T11:39:58.542Z,6.40
2018-12-31T11:42:26.154Z,6.30
2018-12-31T11:44:53.765Z,6.30
2018-12-31T11:47:21.404Z,6.40
2018-12-31T11:49:49.036Z,6.40
2018-12-31T11:52:16.645Z,6.40
2018-12-31T11:54:44.282Z,6.40
2018-12-31T11:57:11.889Z,6.40
2018-12-31T11:59:39.532Z,6.50
2018-12-31T12:02:07.139Z,6.50
2018-12-31T12:04:34.772Z,6.50
2018-12-31T12:07:02.384Z,6.50
2018-12-31T12:09:30.004Z,6.50
2018-12-31T12:11:57.614Z,6.50
2018-12-31T12:14:25.232Z,6.50
2018-12-31T12:16:53.128Z,6.50
2018-12-31T12:19:20.745Z,6.50
2018-12-31T12:21:48.354Z,6.50
2018-12-31T12:24:15.981Z,6.50
2018-12-31T12:26:43.590Z,6.50
2018-12-31T12:29:11.209Z,6.50
2018-12-31T12:31:38.816Z,6.50
2018-12-31T12:34:06.434Z,6.40
2018-12-31T12:36:34.057Z,6.40
2018-12-31T12:39:01.703Z,6.40
2018-12-31T12:41:29.328Z,6.40
2018-12-31T12:43:57.215Z,6.40
2018-12-31T12:46:24.844Z,6.50
2018-12-31T12:48:52.449Z,6.50
2018-12-31T12:51:20.080Z,6.60
2018-12-31T12:53:47.708Z,6.70
2018-12-31T12:56:15.337Z,6.70
2018-12-31T12:58:43.018Z,6.70
2018-12-31T13:01:10.647Z,6.80
2018-12-31T13:03:38.279Z,6.90
2018-12-31T13:06:05.911Z,6.80
2018-12-31T13:08:33.517Z,6.80
2018-12-31T13:11:01.813Z,6.80
2018-12-31T13:13:29.378Z,6.80
2018-12-31T13:15:56.999Z,6.90
2018-12-31T13:18:24.631Z,6.90
2018-12-31T13:20:52.240Z,6.90
2018-12-31T13:23:19.852Z,6.90
2018-12-31T13:25:47.465Z,6.90
2018-12-31T13:28:15.073Z,6.90
2018-12-31T13:30:42.688Z,6.80
2018-12-31T13:33:10.313Z,6.80
2018-12-31T13:35:37.921Z,6.80
2018-12-31T13:38:05.821Z,6.80
2018-12-31T13:40:34.390Z,6.70
2018-12-31T13:43:02.121Z,6.80
2018-12-31T13:45:29.747Z,6.70
2018-12-31T13:47:57.369Z,6.70
2018-12-31T13:50:25.021Z,6.70
2018-12-31T13:52:52.605Z,6.70
2018-12-31T13:55:20.225Z,6.70
2018-12-31T13:57:47.847Z,6.70
2018-12-31T14:00:15.460Z,6.70
2018-12-31T14:02:43.069Z,6.70
2018-12-31T14:05:10.903Z,6.80
2018-12-31T14:07:38.519Z,6.80
2018-12-31T14:10:06.603Z,6.80
2018-12-31T14:12:34.224Z,7.30
2018-12-31T14:15:01.828Z,8.00
2018-12-31T14:17:29.851Z,8.00
2018-12-31T14:19:57.457Z,7.60
2018-12-31T14:22:25.073Z,7.30
2018-12-31T14:24:52.673Z,7.10
2018-12-31T14:27:20.302Z,7.10
2018-12-31T14:29:47.927Z,7.00
2018-12-31T14:32:15.541Z,6.90
2018-12-31T14:34:43.148Z,6.90
2018-12-31T14:37:10.789Z,6.90
2018-12-31T14:39:38.396Z,6.80
2018-12-31T14:42:06.017Z,6.80
2018-12-31T14:44:33.629Z,6.80
2018-12-31T14:47:01.261Z,6.80
2018-12-31T14:49:28.879Z,6.80
2018-12-31T14:51:56.492Z,6.80
2018-12-31T14:54:24.122Z,6.70
2018-12-31T14:56:51.761Z,6.70
2018-12-31T14:59:19.571Z,6.70
2018-12-31T15:01:47.208Z,6.70
2018-12-31T15:04:14.826Z,6.70
2018-12-31T15:06:42.428Z,6.70
2018-12-31T15:09:10.038Z,6.60
2018-12-31T15:11:37.648Z,6.60
2018-12-31T15:14:05.260Z,6.60
2018-12-31T15:16:32.872Z,6.60
2018-12-31T15:19:00.481Z,6.60
2018-12-31T15:21:28.089Z,6.60
2018-12-31T15:23:55.701Z,6.60
2018-12-31T15:26:23.685Z,6.60
2018-12-31T15:28:51.315Z,6.50
2018-12-31T15:31:18.937Z,6.50
2018-12-31T15:33:46.557Z,6.50
2018-12-31T15:36:14.174Z,6.50
2018-12-31T15:38:41.788Z,6.40
2018-12-31T15:41:09.411Z,6.40
2018-12-31T15:43:37.031Z,6.40
2018-12-31T15:46:04.647Z,6.40
2018-12-31T15:48:32.272Z,6.40
2018-12-31T15:50:59.876Z,6.40
2018-12-31T15:53:27.757Z,6.40
2018-12-31T15:55:55.365Z,6.40
2018-12-31T15:58:23.010Z,6.40
2018-12-31T16:00:50.610Z,6.40
2018-12-31T16:03:18.245Z,6.40
2018-12-31T16:05:45.852Z,6.40
2018-12-31T16:08:13.759Z,6.40
2018-12-31T16:10:41.384Z,6.40
2018-12-31T16:13:09.020Z,6.40
2018-12-31T16:15:36.621Z,6.30
2018-12-31T16:18:05.768Z,6.30
2018-12-31T16:20:33.516Z,6.20
2018-12-31T16:23:01.157Z,6.20
2018-12-31T16:25:28.765Z,6.20
2018-12-31T16:27:56.376Z,6.20
2018-12-31T16:30:23.988Z,6.20
2018-12-31T16:32:51.601Z,6.20
2018-12-31T16:35:19.501Z,6.20
2018-12-31T16:37:47.156Z,6.20
2018-12-31T16:40:14.791Z,6.20
2018-12-31T16:42:42.407Z,6.20
2018-12-31T16:45:10.038Z,6.10
2018-12-31T16:47:37.640Z,6.10
2018-12-31T16:50:06.155Z,6.10
2018-12-31T16:52:33.753Z,6.10
2018-12-31T16:55:01.404Z,6.10
2018-12-31T16:57:29.011Z,6.10
2018-12-31T16:59:56.625Z,6.10
2018-12-31T17:02:24.519Z,6.00
2018-12-31T17:04:52.142Z,6.00
2018-12-31T17:07:19.741Z,6.00
2018-12-31T17:09:47.365Z,6.10
2018-12-31T17:12:14.994Z,6.10
2018-12-31T17:14:42.596Z,6.10
2018-12-31T17:17:10.612Z,6.10
2018-12-31T17:19:38.293Z,6.10
2018-12-31T17:22:05.888Z,6.20
2018-12-31T17:24:33.536Z,6.20
2018-12-31T17:27:01.159Z,6.20
2018-12-31T17:29:28.807Z,6.20
2018-12-31T17:31:56.408Z,6.20
2018-12-31T17:34:24.021Z,6.20
2018-12-31T17:36:51.639Z,6.20
2018-12-31T17:39:19.267Z,6.20
2018-12-31T17:41:46.876Z,6.10
2018-12-31T17:44:14.498Z,6.20
2018-12-31T17:46:42.124Z,6.10
2018-12-31T17:49:09.741Z,6.10
2018-12-31T17:51:37.371Z,6.10
2018-12-31T17:54:04.983Z,6.10
2018-12-31T17:56:32.621Z,6.10
2018-12-31T17:59:00.526Z,6.10
2018-12-31T18:01:28.124Z,6.00
2018-12-31T18:03:55.761Z,6.00
2018-12-31T18:06:23.360Z,6.10
2018-12-31T18:08:50.973Z,6.10
2018-12-31T18:11:18.588Z,6.10
2018-12-31T18:13:46.379Z,6.10
2018-12-31T18:16:14.005Z,6.10
2018-12-31T18:18:41.613Z,6.00
2018-12-31T18:21:09.227Z,6.00
2018-12-31T18:23:36.856Z,6.00
2018-12-31T18:26:04.469Z,6.00
2018-12-31T18:28:32.098Z,6.00
2018-12-31T18:30:59.743Z,6.00
2018-12-31T18:33:27.353Z,5.90
2018-12-31T18:35:54.984Z,5.90
2018-12-31T18:38:22.580Z,6.00
2018-12-31T18:40:50.473Z,5.90
2018-12-31T18:43:18.112Z,5.90
2018-12-31T18:45:45.747Z,5.80
2018-12-31T18:48:13.373Z,5.80
2018-12-31T18:50:40.980Z,5.80
2018-12-31T18:53:08.592Z,5.80
2018-12-31T18:55:36.212Z,5.80
2018-12-31T18:58:03.832Z,5.80
2018-12-31T19:00:31.509Z,5.80
2018-12-31T19:02:59.122Z,5.80
2018-12-31T19:05:26.759Z,5.80
2018-12-31T19:07:54.366Z,5.80
2018-12-31T19:10:21.988Z,5.80
2018-12-31T19:12:49.611Z,5.70
2018-12-31T19:15:17.232Z,5.80
2018-12-31T19:17:44.846Z,5.80
2018-12-31T19:20:12.449Z,5.80
2018-12-31T19:22:40.447Z,5.90
2018-12-31T19:25:08.073Z,5.90
2018-12-31T19:27:35.693Z,6.00
2018-12-31T19:30:03.345Z,6.00
2018-12-31T19:32:30.953Z,6.00
2018-12-31T19:34:58.556Z,5.90
2018-12-31T19:37:26.459Z,5.80
2018-12-31T19:39:54.065Z,5.80
2018-12-31T19:42:21.676Z,5.80
2018-12-31T19:44:49.288Z,5.80
2018-12-31T19:47:16.905Z,5.80
2018-12-31T19:49:44.515Z,5.90
2018-12-31T19:52:12.150Z,5.90
2018-12-31T19:54:39.757Z,5.90
2018-12-31T19:57:07.372Z,5.90
2018-12-31T19:59:34.984Z,5.90
2018-12-31T20:02:02.656Z,5.90
2018-12-31T20:04:30.257Z,5.90
2018-12-31T20:07:01.305Z,5.90
2018-12-31T20:09:27.228Z,5.90
2018-12-31T20:11:54.853Z,5.90
2018-12-31T20:14:22.452Z,5.90
2018-12-31T20:16:50.082Z,6.00
2018-12-31T20:19:18.008Z,6.00
2018-12-31T20:21:45.682Z,5.90
2018-12-31T20:24:13.285Z,6.00
2018-12-31T20:26:40.897Z,6.00
2018-12-31T20:29:08.523Z,5.90
2018-12-31T20:31:36.152Z,5.90
2018-12-31T20:34:04.147Z,5.90
2018-12-31T20:36:31.766Z,5.80
2018-12-31T20:38:59.387Z,5.80
2018-12-31T20:41:27.001Z,5.80
2018-12-31T20:43:54.601Z,5.80
2018-12-31T20:46:22.229Z,5.80
2018-12-31T20:48:49.847Z,5.90
2018-12-31T20:51:17.461Z,5.80
2018-12-31T20:53:45.087Z,5.80
2018-12-31T20:56:12.703Z,5.80
2018-12-31T20:58:40.313Z,5.80
2018-12-31T21:01:07.925Z,5.80
2018-12-31T21:03:35.790Z,5.80
2018-12-31T21:06:03.396Z,5.90
2018-12-31T21:08:31.013Z,5.80
2018-12-31T21:10:58.620Z,5.80
2018-12-31T21:13:26.240Z,5.80
2018-12-31T21:15:53.859Z,5.70
2018-12-31T21:18:21.490Z,5.70
2018-12-31T21:20:49.117Z,5.80
2018-12-31T21:23:16.743Z,5.80
2018-12-31T21:25:44.352Z,5.80
2018-12-31T21:28:11.964Z,5.70
2018-12-31T21:30:39.578Z,5.70
2018-12-31T21:33:07.573Z,5.70
2018-12-31T21:35:35.204Z,5.70
2018-12-31T21:38:02.808Z,5.80
2018-12-31T21:40:30.435Z,5.70
2018-12-31T21:42:58.045Z,5.70
2018-12-31T21:45:25.645Z,5.70
2018-12-31T21:47:53.451Z,5.70
2018-12-31T21:50:21.076Z,5.80
2018-12-31T21:52:48.685Z,5.80
2018-12-31T21:55:16.299Z,5.80
2018-12-31T21:57:43.921Z,5.80
2018-12-31T22:00:11.540Z,5.70
2018-12-31T22:02:39.321Z,5.70
2018-12-31T22:05:06.924Z,5.70
2018-12-31T22:07:34.541Z,5.80
2018-12-31T22:10:02.155Z,5.80
2018-12-31T22:12:29.786Z,5.80
2018-12-31T22:14:57.396Z,5.80
2018-12-31T22:17:25.088Z,5.80
2018-12-31T22:19:52.715Z,5.80
2018-12-31T22:22:20.336Z,5.70
2018-12-31T22:24:47.953Z,5.70
2018-12-31T22:27:15.578Z,5.60
2018-12-31T22:29:43.197Z,5.60
2018-12-31T22:32:10.823Z,5.60
2018-12-31T22:34:38.457Z,5.60
2018-12-31T22:37:06.048Z,5.60
2018-12-31T22:39:33.706Z,5.60
2018-12-31T22:42:01.316Z,5.60
2018-12-31T22:44:28.949Z,5.60
2018-12-31T22:46:56.587Z,5.50
2018-12-31T22:49:24.204Z,5.60
2018-12-31T22:51:51.825Z,5.60
2018-12-31T22:54:19.425Z,5.60
2018-12-31T22:56:47.032Z,5.60
2018-12-31T22:59:14.933Z,5.60
2018-12-31T23:01:42.555Z,5.60
2018-12-31T23:04:10.178Z,5.60
2018-12-31T23:06:37.817Z,5.60
2018-12-31T23:09:06.595Z,5.60
2018-12-31T23:11:34.219Z,5.60
2018-12-31T23:14:01.842Z,5.60
2018-12-31T23:16:29.449Z,5.60
2018-12-31T23:18:57.087Z,5.60
2018-12-31T23:21:24.711Z,5.60
2018-12-31T23:23:52.329Z,5.60
2018-12-31T23:26:20.127Z,5.60
2018-12-31T23:28:52.443Z,5.70
2018-12-31T23:31:17.075Z,5.60
2018-12-31T23:33:44.718Z,5.70
2018-12-31T23:36:12.458Z,5.70
2018-12-31T23:38:40.216Z,5.70
2018-12-31T23:41:08.105Z,5.70
2018-12-31T23:43:35.952Z,5.70
2018-12-31T23:46:03.570Z,5.70
2018-12-31T23:48:31.196Z,5.70
2018-12-31T23:50:58.842Z,5.70
2018-12-31T23:53:26.444Z,5.70
2018-12-31T23:55:54.139Z,5.70
2018-12-31T23:58:21.749Z,5.70
